Time;durP1;ratioP1;P1;durP2;ratioP2;P2;SDS_P1;SDS_P2;PMS_P1;PMS_P2;Temp;Humidity;BMP_temperature;BMP_pressure;BME280_temperature;BME280_humidity;BME280_pressure;Samples;Min_cycle;Max_cycle;Signal;HPM_P1;HPM_P2
2022/07/29 00:00:09;;;;;;;;;8.00;7.67;;;;;19.74;48.14;101092.97;5079578;28;45336;-72
2022/07/29 00:02:34;;;;;;;;;10.00;10.00;;;;;19.67;48.01;101084.97;5078513;28;45421;-72
2022/07/29 00:05:00;;;;;;;;;8.00;8.00;;;;;19.68;48.26;101095.53;5092217;27;45322;-72
2022/07/29 00:07:26;;;;;;;;;9.00;9.00;;;;;19.60;48.13;101090.44;5079752;28;45341;-72
2022/07/29 00:09:51;;;;;;;;;7.33;7.33;;;;;19.42;48.81;101070.53;5077952;28;47200;-72
2022/07/29 00:12:17;;;;;;;;;9.33;8.67;;;;;19.40;48.99;101071.81;5079578;28;45458;-72
2022/07/29 00:14:42;;;;;;;;;10.33;10.33;;;;;19.46;49.18;101070.94;5075138;28;45425;-72
2022/07/29 00:17:08;;;;;;;;;9.67;9.67;;;;;19.47;49.79;101072.56;5086119;27;45412;-72
2022/07/29 00:19:34;;;;;;;;;10.00;9.00;;;;;19.45;49.74;101068.44;5079434;28;45400;-72
2022/07/29 00:21:59;;;;;;;;;10.67;8.67;;;;;19.33;49.73;101044.13;5079316;28;45358;-72
2022/07/29 00:24:25;;;;;;;;;10.33;9.00;;;;;19.36;49.13;101057.16;5079727;28;45334;-72
2022/07/29 00:26:50;;;;;;;;;7.00;7.00;;;;;19.26;49.62;101045.03;5079122;28;45279;-72
2022/07/29 00:29:15;;;;;;;;;9.00;8.67;;;;;19.26;50.01;101058.50;5079559;28;45378;-72
2022/07/29 00:31:41;;;;;;;;;7.33;7.33;;;;;19.24;50.06;101055.19;5087779;27;45374;-72
2022/07/29 00:35:43;;;;;;;;;7.33;7.33;;;;;19.22;50.15;101054.63;5079441;28;45360;-72
2022/07/29 00:36:51;;;;;;;;;9.33;9.33;;;;;19.12;50.04;101040.81;5078400;28;45278;-72
2022/07/29 00:39:17;;;;;;;;;10.00;8.67;;;;;19.15;50.36;101048.47;5094216;27;47766;-72
2022/07/29 00:41:42;;;;;;;;;8.67;8.00;;;;;19.09;50.39;101042.09;5077622;28;49420;-72
2022/07/29 00:44:07;;;;;;;;;10.00;10.00;;;;;19.07;50.75;101046.03;5079191;28;45492;-72
2022/07/29 00:46:32;;;;;;;;;7.00;7.00;;;;;18.99;51.23;101045.28;5079348;28;45237;-72
2022/07/29 00:48:58;;;;;;;;;10.00;10.00;;;;;18.99;51.13;101039.91;5078864;28;46292;-72
2022/07/29 00:51:26;;;;;;;;;9.67;9.67;;;;;18.98;50.91;101043.66;5079263;28;45337;-72
2022/07/29 00:53:52;;;;;;;;;9.33;9.00;;;;;18.90;51.17;101030.47;5079005;28;45267;-72
2022/07/29 00:56:18;;;;;;;;;10.00;8.67;;;;;18.91;51.39;101034.81;5078580;27;45505;-72
2022/07/29 00:58:46;;;;;;;;;8.00;8.00;;;;;18.80;51.55;101029.09;5079064;28;46374;-72
2022/07/29 01:01:11;;;;;;;;;11.00;9.00;;;;;18.73;51.86;101031.03;5079074;28;45305;-72
2022/07/29 01:03:37;;;;;;;;;9.00;9.00;;;;;18.74;51.78;101039.94;5078934;28;45513;-72
2022/07/29 01:06:02;;;;;;;;;11.67;10.33;;;;;18.70;51.72;101033.38;5079131;28;45532;-72
2022/07/29 01:08:28;;;;;;;;;9.00;9.00;;;;;18.66;52.46;101038.38;5078601;28;46400;-73
2022/07/29 01:10:54;;;;;;;;;9.67;9.33;;;;;18.65;52.15;101042.13;5078726;28;46648;-72
2022/07/29 01:13:20;;;;;;;;;9.33;9.33;;;;;18.55;52.57;101035.34;5078909;28;45484;-72
2022/07/29 01:15:52;;;;;;;;;10.33;9.67;;;;;18.55;52.66;101039.91;5083372;27;46087;-72
2022/07/29 01:18:30;;;;;;;;;9.00;9.00;;;;;18.54;52.28;101044.47;5082669;27;47929;-72
2022/07/29 01:21:21;;;;;;;;;9.67;9.67;;;;;18.52;52.45;101053.78;5078606;28;45223;-72
2022/07/29 01:23:59;;;;;;;;;9.00;8.00;;;;;18.40;52.88;101045.63;5078572;28;45295;-72
2022/07/29 01:26:40;;;;;;;;;10.00;9.67;;;;;18.37;52.74;101057.66;5078584;28;45778;-72
2022/07/29 01:29:27;;;;;;;;;7.33;7.33;;;;;18.26;53.45;101048.41;5078333;28;46253;-72
2022/07/29 01:32:03;;;;;;;;;9.33;9.33;;;;;18.28;53.59;101054.41;5078457;28;45290;-72
2022/07/29 01:34:48;;;;;;;;;8.33;8.33;;;;;18.22;53.67;101055.28;5078833;28;45168;-72
2022/07/29 01:37:25;;;;;;;;;10.00;10.00;;;;;18.22;53.75;101057.97;5078471;28;45242;-72
2022/07/29 01:39:54;;;;;;;;;9.00;8.00;;;;;18.14;53.87;101048.28;5078349;28;46796;-72
2022/07/29 01:42:22;;;;;;;;;8.00;7.67;;;;;18.18;53.77;101062.13;5078226;27;45492;-72
2022/07/29 01:45:10;;;;;;;;;10.67;9.00;;;;;18.08;54.09;101053.69;5082666;27;45239;-72
2022/07/29 01:47:46;;;;;;;;;7.33;7.33;;;;;18.04;54.24;101059.50;5078190;28;45325;-72
2022/07/29 01:50:15;;;;;;;;;8.33;8.33;;;;;17.96;54.31;101056.25;5081821;28;45484;-72
2022/07/29 01:52:55;;;;;;;;;7.00;6.33;;;;;18.01;54.28;101069.84;5094740;27;45624;-72
2022/07/29 01:55:27;;;;;;;;;8.00;8.00;;;;;17.95;54.63;101054.59;5068020;28;45328;-72
2022/07/29 01:57:54;;;;;;;;;8.67;8.67;;;;;17.91;54.56;101055.03;5081508;28;45240;-72
2022/07/29 02:00:21;;;;;;;;;7.33;7.33;;;;;17.92;54.92;101063.91;5081706;28;46604;-72
2022/07/29 02:02:49;;;;;;;;;8.00;8.00;;;;;17.85;54.75;101055.06;5090067;27;45273;-72
2022/07/29 02:05:17;;;;;;;;;8.00;8.00;;;;;17.91;55.29;101059.59;5080193;28;45332;-72
2022/07/29 02:07:44;;;;;;;;;9.00;8.00;;;;;17.83;55.06;101054.44;5081293;28;45427;-72
2022/07/29 02:10:11;;;;;;;;;8.00;8.00;;;;;17.82;55.21;101052.81;5081031;28;45187;-72
2022/07/29 02:12:38;;;;;;;;;8.33;8.33;;;;;17.88;54.79;101063.53;5081276;28;45500;-72
2022/07/29 02:15:07;;;;;;;;;8.00;7.67;;;;;17.87;55.30;101066.44;5081416;28;45420;-72
2022/07/29 02:17:38;;;;;;;;;8.00;8.00;;;;;17.84;54.99;101064.97;5087898;27;46102;-72
2022/07/29 02:20:05;;;;;;;;;8.67;8.00;;;;;17.78;55.50;101061.28;5091873;27;48693;-72
2022/07/29 02:22:35;;;;;;;;;11.00;11.00;;;;;17.73;55.89;101053.06;5080020;28;45323;-72
2022/07/29 02:25:00;;;;;;;;;10.33;10.00;;;;;17.76;55.39;101062.56;5081075;28;45259;-72
2022/07/29 02:27:28;;;;;;;;;7.00;6.33;;;;;17.70;55.42;101058.03;5081073;28;45448;-72
2022/07/29 02:29:56;;;;;;;;;10.33;9.00;;;;;17.69;55.63;101064.47;5081202;28;46324;-72
2022/07/29 02:32:24;;;;;;;;;11.00;9.00;;;;;17.62;56.78;101065.31;5081117;28;45435;-72
2022/07/29 02:34:51;;;;;;;;;9.00;8.00;;;;;17.58;56.16;101057.88;5081337;28;45366;-72
2022/07/29 02:37:18;;;;;;;;;10.00;10.00;;;;;17.59;56.05;101056.84;5093360;27;46039;-72
2022/07/29 02:39:45;;;;;;;;;6.33;6.33;;;;;17.54;56.24;101052.94;5085241;27;47416;-72
2022/07/29 02:42:14;;;;;;;;;9.00;9.00;;;;;17.61;56.18;101062.84;5080863;28;45385;-72
2022/07/29 02:44:40;;;;;;;;;8.67;8.67;;;;;17.51;56.19;101045.28;5081102;28;45440;-72
2022/07/29 02:47:18;;;;;;;;;9.00;8.33;;;;;17.57;56.18;101064.31;5080829;28;45298;-72
2022/07/29 02:50:09;;;;;;;;;9.33;9.33;;;;;17.48;56.30;101055.66;5081189;28;45468;-72
2022/07/29 02:52:39;;;;;;;;;9.33;9.33;;;;;17.50;56.17;101067.84;5092907;27;45432;-72
2022/07/29 02:55:18;;;;;;;;;9.67;9.67;;;;;17.41;56.58;101056.50;5080500;28;45466;-72
2022/07/29 02:57:49;;;;;;;;;9.00;9.00;;;;;17.34;56.77;101058.41;5080870;28;45250;-72
2022/07/29 03:00:15;;;;;;;;;10.00;10.00;;;;;17.36;56.86;101061.69;5080017;28;46500;-72
2022/07/29 03:02:44;;;;;;;;;10.00;10.00;;;;;17.37;56.83;101067.88;5080614;28;45356;-72
2022/07/29 03:05:17;;;;;;;;;11.00;11.00;;;;;17.34;56.89;101073.69;5079067;28;45300;-72
2022/07/29 03:07:47;;;;;;;;;9.33;9.33;;;;;17.33;57.44;101069.34;5080511;28;45540;-72
2022/07/29 03:10:13;;;;;;;;;9.00;9.00;;;;;17.28;57.59;101068.13;5080131;27;45443;-72
2022/07/29 03:12:39;;;;;;;;;10.00;10.00;;;;;17.29;57.22;101071.63;5080103;28;45403;-72
2022/07/29 03:15:06;;;;;;;;;10.00;10.00;;;;;17.20;57.36;101062.97;5080638;28;45530;-72
2022/07/29 03:17:31;;;;;;;;;9.67;9.67;;;;;17.22;57.44;101068.97;5091750;27;47234;-72
2022/07/29 03:19:58;;;;;;;;;9.00;9.00;;;;;17.12;57.78;101055.16;5080518;28;45606;-72
2022/07/29 03:22:24;;;;;;;;;10.00;10.00;;;;;17.18;57.38;101078.47;5080498;28;45329;-72
2022/07/29 03:24:49;;;;;;;;;10.00;10.00;;;;;17.15;57.68;101074.34;5080092;28;45260;-72
2022/07/29 03:27:15;;;;;;;;;11.00;11.00;;;;;17.11;57.89;101074.97;5080365;28;45301;-72
2022/07/29 03:29:40;;;;;;;;;10.67;10.67;;;;;17.11;58.23;101091.06;5079138;28;48219;-72
2022/07/29 03:32:06;;;;;;;;;8.67;8.67;;;;;17.06;58.18;101083.63;5091998;27;51229;-72
2022/07/29 03:34:31;;;;;;;;;10.33;9.00;;;;;17.03;58.18;101074.13;5080661;28;45392;-72
2022/07/29 03:36:57;;;;;;;;;10.33;10.33;;;;;17.00;58.73;101084.47;5080241;28;45354;-72
2022/07/29 03:39:27;;;;;;;;;9.67;9.00;;;;;16.98;58.89;101081.16;5080125;28;45432;-72
2022/07/29 03:41:55;;;;;;;;;9.67;9.67;;;;;16.94;58.63;101088.81;5079874;28;45321;-72
2022/07/29 03:44:22;;;;;;;;;9.33;9.33;;;;;16.94;59.04;101093.38;5079980;28;45432;-72
2022/07/29 03:46:50;;;;;;;;;10.00;10.00;;;;;16.94;58.95;101090.69;5079929;28;45363;-73
2022/07/29 03:49:18;;;;;;;;;10.67;10.67;;;;;16.95;59.31;101092.31;5078259;28;47257;-72
2022/07/29 03:51:44;;;;;;;;;9.67;9.67;;;;;16.93;59.13;101089.84;5078289;28;45394;-72
2022/07/29 03:54:09;;;;;;;;;11.00;9.67;;;;;16.88;59.48;101085.09;5078474;28;45588;-72
2022/07/29 03:56:39;;;;;;;;;9.33;9.33;;;;;16.90;59.33;101093.78;5076189;27;46253;-72
2022/07/29 03:59:05;;;;;;;;;10.00;10.00;;;;;16.82;59.26;101093.97;5079727;28;46541;-71
2022/07/29 04:01:33;;;;;;;;;12.00;12.00;;;;;16.79;59.43;101102.44;5079750;28;45431;-71
2022/07/29 04:04:01;;;;;;;;;9.00;9.00;;;;;16.76;59.82;101103.69;5079746;28;45335;-72
2022/07/29 04:06:26;;;;;;;;;8.33;8.33;;;;;16.71;59.78;101094.59;5090143;27;46165;-72
2022/07/29 04:08:51;;;;;;;;;12.00;12.00;;;;;16.72;60.02;101094.41;5079461;28;46242;-72
2022/07/29 04:11:17;;;;;;;;;9.00;8.00;;;;;16.68;60.33;101095.84;5078417;28;45373;-72
2022/07/29 04:13:42;;;;;;;;;10.33;10.33;;;;;16.68;60.27;101095.84;5079593;28;45372;-72
2022/07/29 04:16:08;;;;;;;;;12.00;11.00;;;;;16.63;60.49;101090.25;5084120;27;45257;-72
2022/07/29 04:18:33;;;;;;;;;10.33;10.33;;;;;16.59;60.76;101086.34;5081322;27;48408;-72
2022/07/29 04:21:00;;;;;;;;;12.67;12.00;;;;;16.60;61.16;101093.34;5079508;28;45867;-72
2022/07/29 04:23:26;;;;;;;;;11.67;11.67;;;;;16.69;60.82;101110.91;5079277;28;45301;-71
2022/07/29 04:25:51;;;;;;;;;10.33;10.33;;;;;16.59;60.91;101087.19;5078998;28;45369;-72
2022/07/29 04:28:17;;;;;;;;;10.33;9.00;;;;;16.71;61.13;101113.41;5087848;27;48376;-72
2022/07/29 04:30:42;;;;;;;;;11.00;10.67;;;;;16.69;61.14;101115.44;5079348;28;45343;-72
2022/07/29 04:33:08;;;;;;;;;13.00;12.00;;;;;16.70;61.14;101111.75;5085671;27;45394;-72
2022/07/29 04:35:37;;;;;;;;;11.33;11.33;;;;;16.69;61.23;101116.28;5079180;28;46043;-72
2022/07/29 04:38:04;;;;;;;;;11.33;11.33;;;;;16.71;61.18;101114.22;5079172;28;45425;-72
2022/07/29 04:40:29;;;;;;;;;10.67;10.67;;;;;16.73;61.17;101124.75;5078841;28;45538;-72
2022/07/29 04:42:55;;;;;;;;;11.00;11.00;;;;;16.72;61.29;101118.56;5079385;28;45516;-72
2022/07/29 04:45:20;;;;;;;;;10.33;10.00;;;;;16.75;61.68;101131.56;5079092;28;45433;-71
2022/07/29 04:47:46;;;;;;;;;13.00;11.00;;;;;16.74;61.59;101121.88;5078892;28;46693;-72
2022/07/29 04:50:11;;;;;;;;;13.67;13.67;;;;;16.75;61.98;101120.81;5079172;28;45386;-72
2022/07/29 04:52:37;;;;;;;;;14.00;13.00;;;;;16.78;62.31;101123.09;5078882;28;45355;-72
2022/07/29 04:55:04;;;;;;;;;12.00;11.00;;;;;16.75;62.16;101112.78;5078665;28;45625;-72
2022/07/29 04:57:29;;;;;;;;;12.00;12.00;;;;;16.83;61.70;101116.28;5079048;27;46378;-71
2022/07/29 04:59:54;;;;;;;;;12.33;12.33;;;;;16.84;61.70;101118.75;5078663;28;45306;-71
2022/07/29 05:02:20;;;;;;;;;12.33;12.33;;;;;16.94;61.92;101131.75;5079249;28;45391;-71
2022/07/29 05:04:45;;;;;;;;;12.67;12.67;;;;;16.95;61.82;101128.06;5078620;28;45334;-71
2022/07/29 05:07:10;;;;;;;;;14.00;14.00;;;;;16.94;61.55;101128.25;5078944;28;45334;-73
2022/07/29 05:09:36;;;;;;;;;16.33;14.33;;;;;16.99;61.51;101125.75;5078419;28;45422;-71
2022/07/29 05:12:01;;;;;;;;;26.50;26.50;;;;;17.03;61.92;101133.19;5078687;28;45369;-72
2022/07/29 05:14:27;;;;;;;;;18.67;17.33;;;;;17.08;62.23;101139.81;5078906;28;45547;-73
2022/07/29 05:16:52;;;;;;;;;17.00;16.00;;;;;17.10;62.50;101129.72;5091598;27;47951;-73
2022/07/29 05:19:18;;;;;;;;;15.00;15.00;;;;;17.15;62.61;101125.38;5078860;28;45339;-73
2022/07/29 05:21:44;;;;;;;;;18.00;16.00;;;;;17.12;62.54;101116.91;5077464;28;45355;-72
2022/07/29 05:24:10;;;;;;;;;16.67;16.67;;;;;17.16;62.96;101126.19;5082084;28;45385;-72
2022/07/29 05:26:35;;;;;;;;;13.00;13.00;;;;;17.23;63.07;101127.00;5090221;27;47512;-73
2022/07/29 05:29:00;;;;;;;;;14.33;14.33;;;;;17.29;62.78;101120.81;5082157;28;45359;-73
2022/07/29 05:31:26;;;;;;;;;16.00;15.00;;;;;17.37;62.80;101126.97;5082407;28;45432;-72
2022/07/29 05:33:51;;;;;;;;;16.33;15.67;;;;;17.52;62.29;101138.31;5082000;28;46442;-72
2022/07/29 05:36:16;;;;;;;;;15.33;14.33;;;;;17.53;62.12;101117.63;5081898;28;50328;-72
2022/07/29 05:38:41;;;;;;;;;16.00;14.33;;;;;17.70;61.34;101125.22;5081799;28;45408;-72
2022/07/29 05:41:07;;;;;;;;;13.00;12.00;;;;;17.85;61.27;101130.34;5083935;27;45343;-72
2022/07/29 05:43:32;;;;;;;;;12.00;11.67;;;;;17.99;61.58;101131.91;5080458;28;46012;-73
2022/07/29 05:45:58;;;;;;;;;14.00;13.00;;;;;18.04;62.23;101128.59;5081696;28;45322;-72
2022/07/29 05:48:24;;;;;;;;;15.33;14.00;;;;;18.18;62.06;101137.44;5087699;27;45403;-72
2022/07/29 05:50:49;;;;;;;;;15.67;12.67;;;;;18.26;61.55;101131.00;5080527;28;45612;-72
2022/07/29 05:53:14;;;;;;;;;13.00;13.00;;;;;18.39;61.18;101133.59;5081692;28;45365;-72
2022/07/29 05:55:40;;;;;;;;;13.00;12.00;;;;;18.60;61.09;101146.91;5076703;27;48502;-73
2022/07/29 05:58:05;;;;;;;;;15.67;13.67;;;;;18.73;60.50;101140.59;5077616;28;45208;-73
2022/07/29 06:00:30;;;;;;;;;14.00;12.00;;;;;18.89;60.16;101140.03;5082017;28;45289;-72
2022/07/29 06:02:56;;;;;;;;;13.67;13.67;;;;;18.99;59.51;101134.16;5081487;28;45500;-73
2022/07/29 06:05:22;;;;;;;;;12.67;12.00;;;;;19.15;58.90;101148.97;5081679;27;46163;-73
2022/07/29 06:07:47;;;;;;;;;14.33;13.67;;;;;19.26;58.57;101143.88;5081541;28;45552;-73
2022/07/29 06:10:13;;;;;;;;;14.67;13.00;;;;;19.37;57.80;101151.25;5081421;28;45407;-72
2022/07/29 06:12:38;;;;;;;;;14.00;12.67;;;;;19.46;58.06;101142.84;5086718;27;46142;-73
2022/07/29 06:15:04;;;;;;;;;12.00;11.00;;;;;19.57;58.73;101147.50;5081390;28;45321;-72
2022/07/29 06:17:29;;;;;;;;;11.67;11.67;;;;;19.65;59.13;101157.16;5089328;27;45367;-73
2022/07/29 06:19:54;;;;;;;;;10.00;10.00;;;;;19.70;58.72;101160.00;5090957;27;45400;-72
2022/07/29 06:22:20;;;;;;;;;10.33;10.33;;;;;19.80;58.55;101175.66;5079980;28;46271;-73
2022/07/29 06:24:45;;;;;;;;;9.67;9.00;;;;;19.86;58.80;101177.44;5080939;28;46324;-73
2022/07/29 06:27:11;;;;;;;;;12.33;12.33;;;;;19.96;58.16;101178.78;5081265;28;45531;-73
2022/07/29 06:29:36;;;;;;;;;11.00;11.00;;;;;19.97;57.89;101172.34;5080231;28;45399;-73
2022/07/29 06:32:02;;;;;;;;;12.00;11.00;;;;;20.05;58.14;101174.75;5079498;28;47026;-73
2022/07/29 06:34:27;;;;;;;;;12.00;12.00;;;;;20.12;57.76;101171.97;5078931;28;47356;-73
2022/07/29 06:36:53;;;;;;;;;9.67;9.67;;;;;20.18;57.65;101177.25;5081062;28;45307;-73
2022/07/29 06:39:18;;;;;;;;;10.00;10.00;;;;;20.22;57.83;101172.25;5096441;27;45446;-73
2022/07/29 06:41:50;;;;;;;;;11.33;11.33;;;;;20.25;57.65;101177.19;5062729;28;47263;-73
2022/07/29 06:44:17;;;;;;;;;10.00;10.00;;;;;20.33;57.57;101186.00;5080873;27;45448;-73
2022/07/29 06:46:43;;;;;;;;;10.00;10.00;;;;;20.31;57.57;101183.53;5080854;28;45223;-73
2022/07/29 06:49:09;;;;;;;;;11.00;9.33;;;;;20.38;57.06;101178.06;5080845;28;45283;-73
2022/07/29 06:51:34;;;;;;;;;13.00;11.33;;;;;20.39;56.80;101174.31;5080834;28;45465;-73
2022/07/29 06:54:00;;;;;;;;;10.33;9.00;;;;;20.43;56.55;101180.88;5083272;27;48243;-73
2022/07/29 06:56:26;;;;;;;;;12.00;11.00;;;;;20.44;56.17;101174.41;5080573;28;45283;-73
2022/07/29 06:58:51;;;;;;;;;10.00;10.00;;;;;20.51;55.98;101185.97;5079555;28;45288;-73
2022/07/29 07:01:16;;;;;;;;;11.33;10.67;;;;;20.45;56.51;101168.00;5079253;28;45778;-73
2022/07/29 07:03:42;;;;;;;;;12.00;12.00;;;;;20.51;56.07;101180.56;5082257;27;52031;-73
2022/07/29 07:06:08;;;;;;;;;11.00;10.00;;;;;20.54;56.03;101177.41;5079389;28;45564;-73
2022/07/29 07:08:33;;;;;;;;;10.33;9.33;;;;;20.49;55.81;101169.16;5080541;28;45355;-73
2022/07/29 07:10:59;;;;;;;;;13.67;12.00;;;;;20.55;55.99;101172.81;5080183;28;45331;-73
2022/07/29 07:13:24;;;;;;;;;8.33;8.00;;;;;20.49;55.84;101171.03;5080391;28;45434;-73
2022/07/29 07:15:51;;;;;;;;;10.33;9.67;;;;;20.58;55.38;101179.63;5082616;27;45300;-73
2022/07/29 07:18:16;;;;;;;;;13.00;11.67;;;;;20.65;55.25;101189.28;5084750;27;45378;-73
2022/07/29 07:20:42;;;;;;;;;10.67;10.67;;;;;20.67;55.18;101192.56;5080528;28;45575;-73
2022/07/29 07:23:07;;;;;;;;;11.67;10.67;;;;;20.71;55.11;101192.91;5080210;28;46051;-73
2022/07/29 07:25:33;;;;;;;;;10.67;8.67;;;;;20.74;55.35;101199.75;5079921;28;45236;-72
2022/07/29 07:27:58;;;;;;;;;10.00;10.00;;;;;20.79;55.34;101200.69;5080572;28;45262;-73
2022/07/29 07:30:24;;;;;;;;;13.33;13.33;;;;;20.83;55.21;101197.53;5080083;28;45252;-73
2022/07/29 07:32:49;;;;;;;;;9.00;9.00;;;;;20.88;55.17;101197.66;5079078;28;47265;-73
2022/07/29 07:35:15;;;;;;;;;12.33;11.00;;;;;21.03;54.78;101205.34;5080318;28;45286;-73
2022/07/29 07:37:40;;;;;;;;;10.00;10.00;;;;;21.07;55.50;101198.41;5080026;28;45274;-73
2022/07/29 07:40:07;;;;;;;;;10.00;10.00;;;;;21.17;54.89;101197.84;5078782;28;45888;-73
2022/07/29 07:42:33;;;;;;;;;9.67;8.67;;;;;21.23;54.72;101188.78;5080026;27;45417;-73
2022/07/29 07:44:59;;;;;;;;;9.67;9.33;;;;;21.36;53.98;101197.69;5085638;27;46080;-73
2022/07/29 07:47:24;;;;;;;;;9.00;8.33;;;;;21.38;54.17;101190.19;5079935;28;45461;-73
2022/07/29 07:49:50;;;;;;;;;9.67;9.67;;;;;21.42;54.12;101192.19;5080063;28;45306;-73
2022/07/29 07:52:17;;;;;;;;;10.00;10.00;;;;;21.50;53.14;101188.31;5079659;28;46855;-73
2022/07/29 07:54:44;;;;;;;;;9.00;9.00;;;;;21.57;53.72;101189.00;5079489;28;45248;-73
2022/07/29 07:57:10;;;;;;;;;12.33;9.67;;;;;21.64;53.36;101182.63;5079974;28;45298;-73
2022/07/29 07:59:35;;;;;;;;;9.33;9.33;;;;;21.69;53.47;101183.56;5075482;28;46488;-72
2022/07/29 08:02:01;;;;;;;;;9.67;9.67;;;;;21.76;53.41;101179.94;5081445;27;47383;-73
2022/07/29 08:04:26;;;;;;;;;12.33;9.67;;;;;21.92;52.92;101191.88;5078423;28;45486;-73
2022/07/29 08:06:54;;;;;;;;;9.67;9.67;;;;;21.95;52.56;101194.13;5078459;28;45467;-73
2022/07/29 08:09:22;;;;;;;;;10.00;9.67;;;;;22.00;52.36;101194.19;5079730;28;45354;-73
2022/07/29 08:11:48;;;;;;;;;10.00;10.00;;;;;22.16;52.10;101202.63;5079069;28;45655;-73
2022/07/29 08:14:13;;;;;;;;;9.33;9.33;;;;;22.25;52.45;101205.75;5083966;27;45345;-73
2022/07/29 08:16:41;;;;;;;;;8.00;8.00;;;;;22.38;51.68;101207.34;5087579;27;45282;-73
2022/07/29 08:19:06;;;;;;;;;10.00;10.00;;;;;22.43;51.27;101194.75;5079349;28;45482;-73
2022/07/29 08:21:32;;;;;;;;;10.33;8.00;;;;;22.54;51.22;101198.44;5079451;28;46168;-73
2022/07/29 08:26:42;;;;;;;;;9.33;9.33;;;;;22.82;51.08;101204.09;5079615;28;45285;-73
2022/07/29 08:29:07;;;;;;;;;8.67;8.00;;;;;22.94;51.33;101201.28;5079280;28;45474;-73
2022/07/29 08:31:33;;;;;;;;;9.67;9.67;;;;;23.07;50.90;101200.13;5079337;28;45450;-73
2022/07/29 08:33:59;;;;;;;;;11.00;11.00;;;;;23.15;50.09;101196.19;5078992;28;45543;-73
2022/07/29 08:36:26;;;;;;;;;8.33;8.00;;;;;23.35;50.10;101206.53;5079722;28;45243;-73
2022/07/29 08:38:51;;;;;;;;;8.00;8.00;;;;;23.46;49.63;101204.78;5078973;28;45479;-73
2022/07/29 08:41:18;;;;;;;;;9.33;8.00;;;;;23.58;48.38;101201.97;5077680;28;48543;-73
2022/07/29 08:43:44;;;;;;;;;7.67;7.67;;;;;23.67;48.92;101195.03;5079227;28;45316;-73
2022/07/29 08:46:10;;;;;;;;;7.00;7.00;;;;;23.83;48.67;101209.59;5079173;28;45317;-73
2022/07/29 08:48:36;;;;;;;;;8.00;8.00;;;;;23.93;47.29;101205.38;5077857;28;46056;-73
2022/07/29 08:51:02;;;;;;;;;6.00;6.00;;;;;24.07;46.08;101212.03;5074084;28;48540;-73
2022/07/29 08:53:28;;;;;;;;;7.00;7.00;;;;;24.19;46.44;101209.22;5068931;28;45320;-74
2022/07/29 08:55:54;;;;;;;;;8.67;8.00;;;;;24.30;46.45;101202.00;5079164;27;45274;-73
2022/07/29 08:58:20;;;;;;;;;7.33;7.33;;;;;24.40;45.02;101205.91;5079952;28;47502;-73
2022/07/29 09:00:51;;;;;;;;;8.33;8.33;;;;;24.54;45.53;101204.41;5081190;28;47453;-74
2022/07/29 09:03:19;;;;;;;;;7.00;7.00;;;;;24.65;44.90;101205.31;5082476;28;45156;-73
2022/07/29 09:05:46;;;;;;;;;5.00;5.00;;;;;24.70;43.85;101199.13;5077818;28;45355;-73
2022/07/29 09:08:13;;;;;;;;;8.33;7.67;;;;;24.71;43.27;101198.84;5076866;28;45334;-73
2022/07/29 09:10:39;;;;;;;;;7.33;7.33;;;;;24.76;43.56;101202.69;5082069;28;45326;-74
2022/07/29 09:13:04;;;;;;;;;7.00;7.00;;;;;24.80;42.96;101220.09;5091561;27;45872;-73
2022/07/29 09:15:30;;;;;;;;;10.00;7.00;;;;;24.82;43.37;101216.06;5082452;28;45252;-73
2022/07/29 09:17:58;;;;;;;;;8.00;7.00;;;;;24.85;43.02;101201.13;5085703;27;46379;-73
2022/07/29 09:20:24;;;;;;;;;11.00;10.33;;;;;25.02;42.85;101211.06;5080048;28;45572;-73
2022/07/29 09:22:52;;;;;;;;;8.33;8.00;;;;;25.15;42.75;101196.19;5082044;27;45688;-73
2022/07/29 09:25:39;;;;;;;;;7.00;7.00;;;;;25.27;42.45;101204.16;5082076;28;45418;-73
2022/07/29 09:28:09;;;;;;;;;10.00;8.33;;;;;25.40;41.97;101191.97;5082227;28;45428;-73
2022/07/29 09:30:49;;;;;;;;;9.67;8.00;;;;;25.57;42.40;101205.41;5095321;27;47889;-72
2022/07/29 09:33:14;;;;;;;;;6.33;6.33;;;;;25.63;41.91;101190.78;5082115;28;45318;-73
2022/07/29 09:35:40;;;;;;;;;6.67;6.67;;;;;25.70;41.14;101193.25;5081980;28;45284;-73
2022/07/29 09:38:13;;;;;;;;;8.33;7.67;;;;;25.73;40.72;101190.00;5081815;27;45459;-73
2022/07/29 09:40:38;;;;;;;;;7.00;7.00;;;;;25.76;41.26;101197.63;5081561;28;45404;-73
2022/07/29 09:43:11;;;;;;;;;7.67;7.67;;;;;25.78;40.48;101190.03;5082104;28;45277;-73
2022/07/29 09:45:37;;;;;;;;;9.00;8.67;;;;;25.91;40.63;101199.59;5081909;28;45386;-73
2022/07/29 09:48:18;;;;;;;;;5.67;5.33;;;;;25.99;40.87;101202.88;5081843;28;45180;-73
2022/07/29 09:50:46;;;;;;;;;6.33;6.33;;;;;26.01;39.92;101203.44;5081309;28;46497;-73
2022/07/29 09:53:33;;;;;;;;;8.00;8.00;;;;;26.04;39.53;101200.97;5081618;28;45372;-74
2022/07/29 09:55:59;;;;;;;;;6.00;6.00;;;;;26.06;39.22;101196.09;5077000;27;45284;-73
2022/07/29 09:58:24;;;;;;;;;7.33;7.00;;;;;26.14;39.65;101194.75;5080363;28;45472;-73
2022/07/29 10:00:52;;;;;;;;;5.33;5.00;;;;;26.24;39.81;101185.75;5080270;28;48066;-73
2022/07/29 10:03:18;;;;;;;;;5.33;5.00;;;;;26.37;39.38;101203.53;5081364;28;45512;-73
2022/07/29 10:05:44;;;;;;;;;8.00;7.00;;;;;26.50;37.90;101195.91;5080355;28;45314;-73
2022/07/29 10:08:12;;;;;;;;;6.33;6.33;;;;;26.58;39.05;101195.38;5079441;28;46094;-72
2022/07/29 10:10:39;;;;;;;;;7.00;6.00;;;;;26.66;39.00;101189.38;5080579;28;45385;-73
2022/07/29 10:13:13;;;;;;;;;7.67;7.67;;;;;26.78;38.46;101180.91;5090717;27;45300;-73
2022/07/29 10:15:44;;;;;;;;;7.00;7.00;;;;;26.89;38.86;101180.91;5081873;27;45375;-74
2022/07/29 10:18:11;;;;;;;;;7.33;6.67;;;;;27.02;39.04;101183.09;5086832;27;46296;-73
2022/07/29 10:20:37;;;;;;;;;7.33;7.33;;;;;27.22;38.29;101186.88;5081032;28;45361;-73
2022/07/29 10:23:03;;;;;;;;;9.67;7.67;;;;;27.31;38.08;101189.84;5088372;27;45314;-73
2022/07/29 10:25:29;;;;;;;;;7.00;7.00;;;;;27.38;37.90;101201.28;5076446;27;45243;-73
2022/07/29 10:27:54;;;;;;;;;7.33;7.33;;;;;27.43;37.76;101190.38;5070858;28;45485;-74
2022/07/29 10:30:22;;;;;;;;;7.67;7.67;;;;;27.46;36.84;101188.97;5079863;28;47941;-73
2022/07/29 10:33:09;;;;;;;;;6.67;6.67;;;;;27.59;36.65;101193.84;5081184;28;45283;-73
2022/07/29 10:35:54;;;;;;;;;5.33;5.33;;;;;27.75;37.37;101196.56;5093569;27;45397;-73
2022/07/29 10:38:58;;;;;;;;;7.50;6.00;;;;;27.97;37.42;101192.59;5080979;28;45380;-73
2022/07/29 10:41:48;;;;;;;;;6.00;6.00;;;;;28.21;36.28;101190.00;5080966;27;45705;-73
2022/07/29 10:44:22;;;;;;;;;5.67;4.00;;;;;28.45;35.33;101188.50;5094745;27;45264;-74
2022/07/29 10:46:47;;;;;;;;;6.00;5.33;;;;;28.66;36.38;101189.13;5076274;27;45362;-73
2022/07/29 10:49:15;;;;;;;;;6.00;5.00;;;;;28.85;35.63;101196.66;5077886;28;45554;-73
2022/07/29 10:52:09;;;;;;;;;4.67;4.67;;;;;29.00;34.67;101201.16;5085610;27;47514;-74
2022/07/29 10:54:37;;;;;;;;;5.00;5.00;;;;;29.09;33.66;101196.69;5080427;28;45226;-73
2022/07/29 10:57:25;;;;;;;;;5.00;5.00;;;;;29.10;32.87;101190.13;5084219;27;45421;-73
2022/07/29 11:00:14;;;;;;;;;6.00;5.67;;;;;29.19;33.82;101197.69;5079314;28;47045;-73
2022/07/29 11:02:39;;;;;;;;;4.00;4.00;;;;;29.19;33.62;101205.91;5071398;28;46244;-73
2022/07/29 11:05:12;;;;;;;;;5.00;5.00;;;;;29.09;32.21;101206.84;5080259;28;45281;-74
2022/07/29 11:07:39;;;;;;;;;5.00;5.00;;;;;29.13;31.70;101215.25;5080886;28;45290;-74
2022/07/29 11:10:14;;;;;;;;;4.00;4.00;;;;;29.26;32.66;101206.34;5078892;28;46455;-73
2022/07/29 11:12:42;;;;;;;;;5.00;4.00;;;;;29.41;30.99;101208.09;5080470;28;45410;-74
2022/07/29 11:15:12;;;;;;;;;4.00;4.00;;;;;29.61;32.10;101198.06;5080419;28;45398;-73
2022/07/29 11:17:52;;;;;;;;;4.00;4.00;;;;;29.82;31.93;101200.53;5088862;27;45306;-74
2022/07/29 11:20:31;;;;;;;;;3.67;3.33;;;;;29.96;32.33;101190.44;5079876;28;45527;-73
2022/07/29 11:22:56;;;;;;;;;3.00;3.00;;;;;30.17;32.25;101190.16;5086592;27;48433;-73
2022/07/29 11:25:22;;;;;;;;;4.67;4.67;;;;;30.41;31.81;101199.41;5078447;28;45454;-73